Time;durP1;ratioP1;P1;durP2;ratioP2;P2;SDS_P1;SDS_P2;PMS_P1;PMS_P2;Temp;Humidity;BMP_temperature;BMP_pressure;BME280_temperature;BME280_humidity;BME280_pressure;Samples;Min_cycle;Max_cycle;Signal;HPM_P1;HPM_P2
2023/11/07 00:00:26;;;;;;;3.40;1.57;;;;;;;;;;5066403;28;20648;-56
2023/11/07 00:02:53;;;;;;;3.87;1.87;;;;;;;;;;5059205;28;20270;-56
2023/11/07 00:05:20;;;;;;;2.00;1.80;;;;;;;;;;5060756;28;20176;-56
2023/11/07 00:07:46;;;;;;;5.37;2.20;;;;;;;;;;5064158;28;20195;-56
2023/11/07 00:10:12;;;;;;;1.57;1.23;;;;;;;;;;5065089;28;20176;-56
2023/11/07 00:12:39;;;;;;;4.73;1.90;;;;;;;;;;5062575;28;20196;-56
2023/11/07 00:15:05;;;;;;;3.60;2.00;;;;;;;;;;5064197;28;20172;-56
2023/11/07 00:17:31;;;;;;;2.10;1.70;;;;;;;;;;5062769;28;20185;-55
2023/11/07 00:19:57;;;;;;;2.77;1.70;;;;;;;;;;5061667;28;20231;-56
2023/11/07 00:22:24;;;;;;;5.97;2.00;;;;;;;;;;5062218;28;20279;-56
2023/11/07 00:24:50;;;;;;;2.63;1.73;;;;;;;;;;5063354;28;20230;-56
2023/11/07 00:27:20;;;;;;;3.80;1.63;;;;;;;;;;5059310;28;20188;-56
2023/11/07 00:29:49;;;;;;;2.80;1.70;;;;;;;;;;5056107;28;20177;-56
2023/11/07 00:32:15;;;;;;;2.77;1.67;;;;;;;;;;5061577;28;20598;-55
2023/11/07 00:34:41;;;;;;;3.27;1.83;;;;;;;;;;5064542;28;20640;-56
2023/11/07 00:37:08;;;;;;;3.33;1.73;;;;;;;;;;5067176;28;20187;-55
2023/11/07 00:39:37;;;;;;;4.53;2.03;;;;;;;;;;5041421;28;20187;-56
2023/11/07 00:42:04;;;;;;;5.33;2.23;;;;;;;;;;5052989;28;20689;-56
2023/11/07 00:44:33;;;;;;;2.83;1.53;;;;;;;;;;5057213;28;20449;-57
2023/11/07 00:47:00;;;;;;;1.60;1.37;;;;;;;;;;5064116;28;20189;-54
2023/11/07 00:49:27;;;;;;;2.80;1.40;;;;;;;;;;5063193;28;20539;-55
2023/11/07 00:51:53;;;;;;;2.73;1.50;;;;;;;;;;5056782;28;20684;-54
2023/11/07 00:54:19;;;;;;;2.87;1.57;;;;;;;;;;5059872;28;20199;-54
2023/11/07 00:56:45;;;;;;;2.17;1.83;;;;;;;;;;5064325;28;20187;-54
2023/11/07 00:59:12;;;;;;;5.10;1.60;;;;;;;;;;5061099;28;20221;-54
2023/11/07 01:01:38;;;;;;;5.57;1.67;;;;;;;;;;5063496;28;20632;-54
2023/11/07 01:04:04;;;;;;;2.80;1.50;;;;;;;;;;5057835;28;20600;-54
2023/11/07 01:06:31;;;;;;;5.20;1.80;;;;;;;;;;5063403;28;20185;-55
2023/11/07 01:08:57;;;;;;;2.83;1.57;;;;;;;;;;5065225;28;20192;-54
2023/11/07 01:11:23;;;;;;;5.10;1.73;;;;;;;;;;5067885;28;20278;-55
2023/11/07 01:13:49;;;;;;;1.53;1.43;;;;;;;;;;5063120;28;20227;-54
2023/11/07 01:16:15;;;;;;;3.10;1.67;;;;;;;;;;5066062;28;20253;-54
2023/11/07 01:18:41;;;;;;;2.30;1.67;;;;;;;;;;5060202;28;20192;-55
2023/11/07 01:21:08;;;;;;;2.67;2.13;;;;;;;;;;5064750;28;20188;-54
2023/11/07 01:23:34;;;;;;;3.13;1.53;;;;;;;;;;5067964;28;20185;-55
2023/11/07 01:26:04;;;;;;;4.43;1.83;;;;;;;;;;5067752;28;20188;-54
2023/11/07 01:28:30;;;;;;;3.10;1.83;;;;;;;;;;5066287;28;20189;-55
2023/11/07 01:30:57;;;;;;;1.77;1.60;;;;;;;;;;5069757;28;20224;-55
2023/11/07 01:33:23;;;;;;;3.00;2.00;;;;;;;;;;5066589;28;20684;-55
2023/11/07 01:35:49;;;;;;;2.03;1.40;;;;;;;;;;5051107;28;20184;-54
2023/11/07 01:38:15;;;;;;;2.90;2.17;;;;;;;;;;5067814;28;20190;-54
2023/11/07 01:40:41;;;;;;;3.40;1.83;;;;;;;;;;5067102;28;20268;-55
2023/11/07 01:43:11;;;;;;;3.00;1.70;;;;;;;;;;5068585;28;20581;-54
2023/11/07 01:45:37;;;;;;;3.67;1.97;;;;;;;;;;5051936;28;20722;-55
2023/11/07 01:48:03;;;;;;;2.13;1.80;;;;;;;;;;5066105;28;20605;-55
2023/11/07 01:50:30;;;;;;;5.77;1.80;;;;;;;;;;5060746;28;20262;-54
2023/11/07 01:52:57;;;;;;;2.00;1.80;;;;;;;;;;5057590;28;20301;-55
2023/11/07 01:55:23;;;;;;;2.03;1.50;;;;;;;;;;5063466;28;20207;-54
2023/11/07 01:57:50;;;;;;;2.07;1.40;;;;;;;;;;5068488;28;20215;-54
2023/11/07 02:00:18;;;;;;;2.70;1.97;;;;;;;;;;5068406;28;20256;-55
2023/11/07 02:02:44;;;;;;;3.27;1.80;;;;;;;;;;5064155;28;20196;-55
2023/11/07 02:05:11;;;;;;;3.60;2.00;;;;;;;;;;5061579;28;20195;-54
2023/11/07 02:07:38;;;;;;;2.33;2.13;;;;;;;;;;5060492;28;20208;-54
2023/11/07 02:10:05;;;;;;;2.77;1.87;;;;;;;;;;5060355;28;20189;-54
2023/11/07 02:12:31;;;;;;;2.60;2.00;;;;;;;;;;5059984;28;20255;-55
2023/11/07 02:14:57;;;;;;;2.60;1.92;;;;;;;;;;5060099;28;20394;-55
2023/11/07 02:17:24;;;;;;;3.43;1.80;;;;;;;;;;5061655;28;20269;-54
2023/11/07 02:19:50;;;;;;;2.20;1.70;;;;;;;;;;5065641;28;20227;-55
2023/11/07 02:22:16;;;;;;;1.97;1.53;;;;;;;;;;5061716;28;20541;-55
2023/11/07 02:24:43;;;;;;;2.70;1.90;;;;;;;;;;5065224;28;20173;-55
2023/11/07 02:27:09;;;;;;;2.90;1.77;;;;;;;;;;5067067;28;20180;-55
2023/11/07 02:29:35;;;;;;;3.40;1.83;;;;;;;;;;5063822;28;20351;-55
2023/11/07 02:32:01;;;;;;;3.60;2.07;;;;;;;;;;5065319;28;20231;-55
2023/11/07 02:34:27;;;;;;;3.67;1.70;;;;;;;;;;5068959;28;20655;-55
2023/11/07 02:36:53;;;;;;;4.73;1.87;;;;;;;;;;5065777;28;20173;-55
2023/11/07 02:39:19;;;;;;;3.20;1.97;;;;;;;;;;5062530;28;20231;-55
2023/11/07 02:41:45;;;;;;;2.17;1.67;;;;;;;;;;5046237;28;20524;-55
2023/11/07 02:44:17;;;;;;;2.63;2.00;;;;;;;;;;5060236;28;20278;-55
2023/11/07 02:46:45;;;;;;;3.00;1.90;;;;;;;;;;5062787;28;20172;-55
2023/11/07 02:49:11;;;;;;;3.47;1.90;;;;;;;;;;5064329;28;20746;-55
2023/11/07 02:51:39;;;;;;;1.87;1.53;;;;;;;;;;5062943;28;20671;-55
2023/11/07 02:54:06;;;;;;;2.17;1.40;;;;;;;;;;5063353;28;20219;-55
2023/11/07 02:56:35;;;;;;;2.80;1.70;;;;;;;;;;5057889;28;20173;-54
2023/11/07 02:59:01;;;;;;;2.47;1.93;;;;;;;;;;5060493;28;20240;-55
2023/11/07 03:01:27;;;;;;;2.57;1.60;;;;;;;;;;5062688;28;20184;-55
2023/11/07 03:03:54;;;;;;;2.67;1.70;;;;;;;;;;5060318;28;20648;-56
2023/11/07 03:06:20;;;;;;;4.10;1.77;;;;;;;;;;5060588;28;20727;-56
2023/11/07 03:08:47;;;;;;;3.57;1.80;;;;;;;;;;5057995;28;20247;-56
2023/11/07 03:11:13;;;;;;;3.57;1.77;;;;;;;;;;5062847;28;20195;-58
2023/11/07 03:13:39;;;;;;;1.77;1.50;;;;;;;;;;5066390;28;20193;-56
2023/11/07 03:16:06;;;;;;;1.40;1.30;;;;;;;;;;5065518;28;20562;-56
2023/11/07 03:18:32;;;;;;;2.43;1.67;;;;;;;;;;5061221;28;20585;-56
2023/11/07 03:20:59;;;;;;;2.40;1.80;;;;;;;;;;5057393;28;20189;-56
2023/11/07 03:23:25;;;;;;;2.33;1.70;;;;;;;;;;5064367;28;20542;-56
2023/11/07 03:25:54;;;;;;;4.00;1.90;;;;;;;;;;5062046;28;20506;-56
2023/11/07 03:28:21;;;;;;;1.87;1.57;;;;;;;;;;5048759;28;20180;-56
2023/11/07 03:30:48;;;;;;;3.20;1.90;;;;;;;;;;5068249;28;20231;-56
2023/11/07 03:33:17;;;;;;;2.33;1.40;;;;;;;;;;5061243;28;20227;-56
2023/11/07 03:35:46;;;;;;;2.67;1.70;;;;;;;;;;5065353;28;20185;-56
2023/11/07 03:38:12;;;;;;;2.73;2.10;;;;;;;;;;5058401;28;20190;-56
2023/11/07 03:40:38;;;;;;;2.23;1.57;;;;;;;;;;5043461;28;20186;-56
2023/11/07 03:43:05;;;;;;;3.67;1.57;;;;;;;;;;5057239;28;20181;-56
2023/11/07 03:45:32;;;;;;;1.70;1.60;;;;;;;;;;5061994;28;20188;-56
2023/11/07 03:48:01;;;;;;;4.07;1.53;;;;;;;;;;5045818;28;20212;-56
2023/11/07 03:50:29;;;;;;;4.47;1.80;;;;;;;;;;5062550;28;20207;-56
2023/11/07 03:52:56;;;;;;;4.23;1.63;;;;;;;;;;5064546;28;20196;-55
2023/11/07 03:55:22;;;;;;;1.73;1.37;;;;;;;;;;5062846;28;20199;-56
2023/11/07 03:57:48;;;;;;;1.77;1.33;;;;;;;;;;5055734;28;20200;-56
2023/11/07 04:00:15;;;;;;;1.40;1.27;;;;;;;;;;5055446;28;20176;-56
2023/11/07 04:02:41;;;;;;;1.70;1.47;;;;;;;;;;5065266;28;20372;-56
2023/11/07 04:05:10;;;;;;;2.57;1.40;;;;;;;;;;5065682;28;20192;-56
2023/11/07 04:07:36;;;;;;;1.63;1.40;;;;;;;;;;5055603;28;20188;-56
2023/11/07 04:10:05;;;;;;;3.07;1.70;;;;;;;;;;5047504;28;20337;-56
2023/11/07 04:12:32;;;;;;;1.40;1.23;;;;;;;;;;5055355;28;20200;-56
2023/11/07 04:14:58;;;;;;;4.63;1.87;;;;;;;;;;5059560;28;20261;-56
2023/11/07 04:17:25;;;;;;;2.37;1.37;;;;;;;;;;5062497;28;20236;-55
2023/11/07 04:19:51;;;;;;;1.53;1.43;;;;;;;;;;5064387;28;20619;-56
2023/11/07 04:22:18;;;;;;;2.03;1.43;;;;;;;;;;5058479;28;20180;-59
2023/11/07 04:24:47;;;;;;;3.80;1.37;;;;;;;;;;5062313;28;20176;-56
2023/11/07 04:27:13;;;;;;;1.40;1.27;;;;;;;;;;5055950;28;20184;-56
2023/11/07 04:29:40;;;;;;;1.87;1.57;;;;;;;;;;5059391;28;20187;-56
2023/11/07 04:32:06;;;;;;;3.63;1.83;;;;;;;;;;5056360;28;20672;-56
2023/11/07 04:34:34;;;;;;;2.13;1.53;;;;;;;;;;5065197;28;20609;-56
2023/11/07 04:37:00;;;;;;;16.33;2.20;;;;;;;;;;5057781;28;20172;-56
2023/11/07 04:39:26;;;;;;;1.93;1.40;;;;;;;;;;5056522;28;20582;-56
2023/11/07 04:41:57;;;;;;;2.93;1.30;;;;;;;;;;5048034;28;20180;-56
2023/11/07 04:44:24;;;;;;;3.43;1.53;;;;;;;;;;5061188;28;20192;-56
2023/11/07 04:46:52;;;;;;;1.83;1.30;;;;;;;;;;5060244;28;20176;-56
2023/11/07 04:49:22;;;;;;;3.23;1.50;;;;;;;;;;5059796;28;20314;-56
2023/11/07 04:51:48;;;;;;;2.03;1.63;;;;;;;;;;5046720;28;20180;-56
2023/11/07 04:54:14;;;;;;;2.77;1.40;;;;;;;;;;5057854;28;20180;-55
2023/11/07 04:56:40;;;;;;;2.63;1.73;;;;;;;;;;5058578;28;20185;-56
2023/11/07 04:59:06;;;;;;;3.23;1.53;;;;;;;;;;5053436;28;20678;-55
2023/11/07 05:01:32;;;;;;;1.83;1.37;;;;;;;;;;5064754;28;20222;-56
2023/11/07 05:03:59;;;;;;;4.40;1.73;;;;;;;;;;5062034;28;20215;-56
2023/11/07 05:06:25;;;;;;;1.73;1.60;;;;;;;;;;5063479;28;20207;-56
2023/11/07 05:08:51;;;;;;;2.17;1.20;;;;;;;;;;5053334;28;20181;-56
2023/11/07 05:11:18;;;;;;;2.37;1.30;;;;;;;;;;5058722;28;20676;-56
2023/11/07 05:13:45;;;;;;;3.17;1.77;;;;;;;;;;5051624;28;20278;-55
2023/11/07 05:16:11;;;;;;;2.90;1.83;;;;;;;;;;5047037;28;20664;-56
2023/11/07 05:18:38;;;;;;;4.30;1.57;;;;;;;;;;5056048;28;20678;-56
2023/11/07 05:21:04;;;;;;;5.70;1.90;;;;;;;;;;5045828;28;20184;-55
2023/11/07 05:23:30;;;;;;;2.17;1.70;;;;;;;;;;5056212;28;20180;-56
2023/11/07 05:26:00;;;;;;;1.93;1.20;;;;;;;;;;5058150;28;20188;-55
2023/11/07 05:28:26;;;;;;;2.50;1.43;;;;;;;;;;5063383;28;20671;-56
2023/11/07 05:30:52;;;;;;;2.83;1.60;;;;;;;;;;5055526;28;20225;-56
2023/11/07 05:33:18;;;;;;;2.93;2.03;;;;;;;;;;5042165;28;20211;-56
2023/11/07 05:35:47;;;;;;;2.77;1.47;;;;;;;;;;5058768;28;20296;-56
2023/11/07 05:38:15;;;;;;;3.20;1.43;;;;;;;;;;5062810;28;20333;-56
2023/11/07 05:40:41;;;;;;;2.07;1.43;;;;;;;;;;5055729;28;20651;-56
2023/11/07 05:43:08;;;;;;;2.43;2.03;;;;;;;;;;5051468;28;20197;-55
2023/11/07 05:45:34;;;;;;;1.83;1.53;;;;;;;;;;5058295;28;20189;-56
2023/11/07 05:48:00;;;;;;;2.43;1.53;;;;;;;;;;5052726;28;20192;-55
2023/11/07 05:50:29;;;;;;;1.97;1.47;;;;;;;;;;5060398;28;20185;-55
2023/11/07 05:52:55;;;;;;;2.47;1.67;;;;;;;;;;5055927;28;20219;-56
2023/11/07 05:55:21;;;;;;;2.30;1.53;;;;;;;;;;5060360;28;20179;-56
2023/11/07 05:57:48;;;;;;;2.47;1.50;;;;;;;;;;5056514;28;20228;-56
2023/11/07 06:00:19;;;;;;;2.97;1.40;;;;;;;;;;5044095;28;20192;-56
2023/11/07 06:02:46;;;;;;;2.67;1.70;;;;;;;;;;5063949;28;20448;-56
2023/11/07 06:05:12;;;;;;;4.77;2.07;;;;;;;;;;5064544;28;20187;-55
2023/11/07 06:07:39;;;;;;;2.90;1.60;;;;;;;;;;5064494;28;20612;-56
2023/11/07 06:10:05;;;;;;;1.80;1.33;;;;;;;;;;5058747;28;20244;-56
2023/11/07 06:12:31;;;;;;;2.50;1.50;;;;;;;;;;5059489;28;20232;-56
2023/11/07 06:14:57;;;;;;;2.60;1.70;;;;;;;;;;5062449;28;20184;-56
2023/11/07 06:17:24;;;;;;;3.63;1.50;;;;;;;;;;5064360;28;20207;-56
2023/11/07 06:19:50;;;;;;;4.07;1.53;;;;;;;;;;5064283;28;20172;-56
2023/11/07 06:22:16;;;;;;;1.50;1.40;;;;;;;;;;5057040;28;20275;-55
2023/11/07 06:24:43;;;;;;;2.30;1.60;;;;;;;;;;5059707;28;20660;-55
2023/11/07 06:27:10;;;;;;;7.30;1.53;;;;;;;;;;5046095;28;20273;-56
2023/11/07 06:29:40;;;;;;;4.33;1.60;;;;;;;;;;5057392;28;20402;-54
2023/11/07 06:32:09;;;;;;;2.00;1.80;;;;;;;;;;5060593;28;20338;-54
2023/11/07 06:34:35;;;;;;;7.40;2.33;;;;;;;;;;5057784;28;20172;-54
2023/11/07 06:37:03;;;;;;;2.53;1.53;;;;;;;;;;5061432;28;20260;-54
2023/11/07 06:39:29;;;;;;;4.83;1.80;;;;;;;;;;5061128;28;20184;-54
2023/11/07 06:41:58;;;;;;;1.60;1.50;;;;;;;;;;5062146;28;20408;-54
2023/11/07 06:44:25;;;;;;;5.13;1.73;;;;;;;;;;5061487;28;20687;-55
2023/11/07 06:46:51;;;;;;;4.30;1.47;;;;;;;;;;5065361;28;20189;-55
2023/11/07 06:49:18;;;;;;;4.53;1.70;;;;;;;;;;5060798;28;20207;-54
2023/11/07 06:51:45;;;;;;;3.33;1.37;;;;;;;;;;5062459;28;20230;-54
2023/11/07 06:54:11;;;;;;;4.43;2.50;;;;;;;;;;5063603;28;20181;-54
2023/11/07 06:56:38;;;;;;;4.00;1.70;;;;;;;;;;5060217;28;20746;-55
2023/11/07 06:59:04;;;;;;;1.70;1.37;;;;;;;;;;5060779;28;20279;-54
2023/11/07 07:01:30;;;;;;;2.83;1.70;;;;;;;;;;5059188;28;20540;-54
2023/11/07 07:03:58;;;;;;;2.03;1.50;;;;;;;;;;5056338;28;20187;-55
2023/11/07 07:06:25;;;;;;;2.17;1.57;;;;;;;;;;5054575;28;20326;-54
2023/11/07 07:08:51;;;;;;;2.27;1.57;;;;;;;;;;5060935;28;20589;-55
2023/11/07 07:11:21;;;;;;;2.63;1.73;;;;;;;;;;5060225;28;20180;-55
2023/11/07 07:13:50;;;;;;;4.57;2.23;;;;;;;;;;5058706;28;20211;-55
2023/11/07 07:16:18;;;;;;;1.97;1.70;;;;;;;;;;5061113;28;20183;-54
2023/11/07 07:18:44;;;;;;;3.47;2.30;;;;;;;;;;5063231;28;20180;-55
2023/11/07 07:21:12;;;;;;;4.07;2.30;;;;;;;;;;5046982;28;20309;-54
2023/11/07 07:23:46;;;;;;;2.83;2.10;;;;;;;;;;5062227;28;20192;-55
2023/11/07 07:26:14;;;;;;;6.30;2.67;;;;;;;;;;5064885;28;20178;-55
2023/11/07 07:28:41;;;;;;;5.30;2.53;;;;;;;;;;5061286;28;20392;-54
2023/11/07 07:31:07;;;;;;;3.20;2.13;;;;;;;;;;5063047;28;20672;-54
2023/11/07 07:33:37;;;;;;;4.07;1.93;;;;;;;;;;5060511;28;20200;-55
2023/11/07 07:36:04;;;;;;;2.57;2.37;;;;;;;;;;5059794;28;20177;-54
2023/11/07 07:38:38;;;;;;;3.00;1.80;;;;;;;;;;5057902;28;20177;-55
2023/11/07 07:41:05;;;;;;;6.77;2.07;;;;;;;;;;5057156;28;20216;-55
2023/11/07 07:43:31;;;;;;;3.30;2.07;;;;;;;;;;5063822;28;20496;-55
2023/11/07 07:45:57;;;;;;;3.70;2.00;;;;;;;;;;5061323;28;20185;-53
2023/11/07 07:48:23;;;;;;;4.17;2.10;;;;;;;;;;5060842;28;20184;-53
2023/11/07 07:50:51;;;;;;;4.30;2.10;;;;;;;;;;5059547;28;20187;-54
2023/11/07 07:53:20;;;;;;;2.73;1.90;;;;;;;;;;5058658;28;20562;-53
2023/11/07 07:55:50;;;;;;;3.00;1.60;;;;;;;;;;5057619;28;20184;-54
2023/11/07 07:58:19;;;;;;;3.90;1.50;;;;;;;;;;5062935;28;20207;-53
2023/11/07 08:00:49;;;;;;;1.70;1.60;;;;;;;;;;5038676;28;20169;-53
2023/11/07 08:03:16;;;;;;;3.23;1.63;;;;;;;;;;5059690;28;20295;-53
2023/11/07 08:05:44;;;;;;;1.73;1.63;;;;;;;;;;5062431;28;20181;-53
2023/11/07 08:08:10;;;;;;;2.23;1.50;;;;;;;;;;5062403;28;20200;-54
2023/11/07 08:10:37;;;;;;;1.93;1.63;;;;;;;;;;5056056;28;20207;-54
2023/11/07 08:13:07;;;;;;;1.63;1.53;;;;;;;;;;5052358;28;20205;-53
2023/11/07 08:15:35;;;;;;;2.07;1.20;;;;;;;;;;5041354;28;20261;-54
2023/11/07 08:18:07;;;;;;;2.27;1.70;;;;;;;;;;5054636;28;20530;-54
2023/11/07 08:20:34;;;;;;;1.67;1.40;;;;;;;;;;5048091;28;20181;-53
2023/11/07 08:23:01;;;;;;;1.93;1.63;;;;;;;;;;5056943;28;20177;-53
2023/11/07 08:25:30;;;;;;;5.63;1.50;;;;;;;;;;5057540;28;20181;-53
2023/11/07 08:27:58;;;;;;;2.30;1.43;;;;;;;;;;5060667;28;20184;-53
2023/11/07 08:30:25;;;;;;;1.40;1.30;;;;;;;;;;5038361;28;20208;-54
2023/11/07 08:32:52;;;;;;;2.63;1.50;;;;;;;;;;5059450;28;20193;-53
2023/11/07 08:35:19;;;;;;;3.83;1.53;;;;;;;;;;5038630;28;20373;-54
2023/11/07 08:37:47;;;;;;;1.73;1.17;;;;;;;;;;5058062;28;20275;-53
2023/11/07 08:40:16;;;;;;;1.40;1.30;;;;;;;;;;5060471;28;20190;-54
2023/11/07 08:42:48;;;;;;;3.97;1.50;;;;;;;;;;5059559;28;20192;-54
2023/11/07 08:45:18;;;;;;;1.97;1.53;;;;;;;;;;5064046;28;20246;-53
2023/11/07 08:47:50;;;;;;;1.70;1.53;;;;;;;;;;5063447;28;20283;-54
2023/11/07 08:50:18;;;;;;;1.50;1.40;;;;;;;;;;5049507;28;20176;-53
2023/11/07 08:52:47;;;;;;;3.33;1.50;;;;;;;;;;5058448;28;20285;-54
2023/11/07 08:55:16;;;;;;;1.97;1.20;;;;;;;;;;5055293;28;20172;-54
2023/11/07 08:57:44;;;;;;;4.37;2.03;;;;;;;;;;5061085;28;20276;-55
2023/11/07 09:00:13;;;;;;;2.20;1.60;;;;;;;;;;5054351;28;20207;-55
2023/11/07 09:02:43;;;;;;;2.73;1.40;;;;;;;;;;5057763;28;20203;-56
2023/11/07 09:05:10;;;;;;;2.83;1.67;;;;;;;;;;5058791;28;20302;-56
2023/11/07 09:07:37;;;;;;;2.23;1.50;;;;;;;;;;5054314;28;20185;-55
2023/11/07 09:10:04;;;;;;;1.97;1.30;;;;;;;;;;5055914;28;20539;-55
2023/11/07 09:12:31;;;;;;;1.50;1.40;;;;;;;;;;5063813;28;20265;-56
2023/11/07 09:14:58;;;;;;;1.90;1.20;;;;;;;;;;5044292;28;20784;-55
2023/11/07 09:17:24;;;;;;;1.83;1.47;;;;;;;;;;5059658;28;20222;-55
2023/11/07 09:19:50;;;;;;;1.57;1.47;;;;;;;;;;5054652;28;20601;-55
2023/11/07 09:22:17;;;;;;;3.57;1.57;;;;;;;;;;5057321;28;20598;-56
2023/11/07 09:24:43;;;;;;;2.07;1.57;;;;;;;;;;5046424;28;20191;-55
2023/11/07 09:27:10;;;;;;;1.53;1.20;;;;;;;;;;5061637;28;20185;-55
2023/11/07 09:29:37;;;;;;;2.73;1.50;;;;;;;;;;5062028;28;20192;-55
2023/11/07 09:32:04;;;;;;;2.03;1.50;;;;;;;;;;5064251;28;20277;-56
2023/11/07 09:34:31;;;;;;;3.23;1.60;;;;;;;;;;5060638;28;20234;-55
2023/11/07 09:36:58;;;;;;;1.93;1.83;;;;;;;;;;5059481;28;20191;-55
2023/11/07 09:39:26;;;;;;;2.73;1.77;;;;;;;;;;5065073;28;20191;-55
2023/11/07 09:41:52;;;;;;;3.00;1.53;;;;;;;;;;5067999;28;20582;-55
2023/11/07 09:44:18;;;;;;;3.47;1.80;;;;;;;;;;5058080;28;20185;-55
2023/11/07 09:46:46;;;;;;;3.67;1.70;;;;;;;;;;5058888;28;20677;-55
2023/11/07 09:49:12;;;;;;;3.07;1.40;;;;;;;;;;5061484;28;20256;-55
2023/11/07 09:51:42;;;;;;;2.47;1.60;;;;;;;;;;5058796;28;20189;-55
2023/11/07 09:54:08;;;;;;;3.00;2.03;;;;;;;;;;5059554;28;20580;-55
2023/11/07 09:56:42;;;;;;;4.17;1.47;;;;;;;;;;5064259;28;20504;-54
2023/11/07 09:59:14;;;;;;;4.33;2.20;;;;;;;;;;5064935;28;20575;-55
2023/11/07 10:01:41;;;;;;;4.33;2.10;;;;;;;;;;5066777;28;20188;-55
2023/11/07 10:04:08;;;;;;;2.93;1.90;;;;;;;;;;5066311;28;20181;-55
2023/11/07 10:06:34;;;;;;;3.53;1.83;;;;;;;;;;5064512;28;20195;-53
2023/11/07 10:09:00;;;;;;;1.90;1.57;;;;;;;;;;5061800;28;20192;-54
2023/11/07 10:11:27;;;;;;;3.90;1.80;;;;;;;;;;5049506;28;20234;-53
2023/11/07 10:14:01;;;;;;;3.10;1.47;;;;;;;;;;5063754;28;20207;-54
2023/11/07 10:16:37;;;;;;;3.33;1.80;;;;;;;;;;5060327;28;20208;-53
2023/11/07 10:19:04;;;;;;;3.50;1.50;;;;;;;;;;5062763;28;20188;-53
2023/11/07 10:21:34;;;;;;;3.67;1.97;;;;;;;;;;5060366;28;20267;-53
2023/11/07 10:24:01;;;;;;;3.63;2.33;;;;;;;;;;5046786;28;20180;-53
2023/11/07 10:26:28;;;;;;;5.43;2.30;;;;;;;;;;5045005;28;20272;-54
2023/11/07 10:29:25;;;;;;;3.80;2.03;;;;;;;;;;5058303;28;20188;-53
2023/11/07 10:32:10;;;;;;;2.13;1.73;;;;;;;;;;5061053;28;20281;-53
2023/11/07 10:34:39;;;;;;;2.20;2.00;;;;;;;;;;5061961;28;20771;-54
2023/11/07 10:37:05;;;;;;;3.33;1.97;;;;;;;;;;5052538;28;20182;-53
2023/11/07 10:39:35;;;;;;;3.80;1.80;;;;;;;;;;5061849;28;20559;-53
2023/11/07 10:42:18;;;;;;;1.70;1.60;;;;;;;;;;5053542;28;20181;-53
2023/11/07 10:44:45;;;;;;;1.60;1.50;;;;;;;;;;5045925;28;20191;-53
2023/11/07 10:47:11;;;;;;;3.10;1.60;;;;;;;;;;5057172;28;20184;-53
2023/11/07 10:49:38;;;;;;;3.17;1.43;;;;;;;;;;5055521;28;20193;-52
2023/11/07 10:52:05;;;;;;;3.17;1.60;;;;;;;;;;5062500;28;20648;-53
2023/11/07 10:54:32;;;;;;;2.17;1.67;;;;;;;;;;5066276;28;20207;-53
2023/11/07 10:57:10;;;;;;;2.83;1.70;;;;;;;;;;5067217;28;20697;-54
2023/11/07 10:59:40;;;;;;;1.47;1.37;;;;;;;;;;5066482;28;20577;-52
2023/11/07 11:02:08;;;;;;;5.27;2.00;;;;;;;;;;5060259;28;20707;-53
2023/11/07 11:04:35;;;;;;;2.57;1.50;;;;;;;;;;5058318;28;20250;-53
2023/11/07 11:07:06;;;;;;;3.87;2.13;;;;;;;;;;5059027;28;20656;-52
2023/11/07 11:09:33;;;;;;;5.40;1.83;;;;;;;;;;5062970;28;20177;-53
2023/11/07 11:12:00;;;;;;;3.00;1.80;;;;;;;;;;5057280;28;20184;-53
2023/11/07 11:14:26;;;;;;;4.77;1.47;;;;;;;;;;5060782;28;20533;-53
2023/11/07 11:16:56;;;;;;;1.73;1.60;;;;;;;;;;5059118;28;20186;-55
2023/11/07 11:19:32;;;;;;;2.50;1.70;;;;;;;;;;5062993;28;20244;-54
2023/11/07 11:21:59;;;;;;;1.60;1.40;;;;;;;;;;5043291;28;20497;-55
2023/11/07 11:24:44;;;;;;;3.27;1.70;;;;;;;;;;5040307;28;20188;-55
2023/11/07 11:27:19;;;;;;;3.23;1.70;;;;;;;;;;5060723;28;20185;-55
2023/11/07 11:29:51;;;;;;;2.57;1.73;;;;;;;;;;5066838;28;20284;-55
2023/11/07 11:32:28;;;;;;;1.73;1.50;;;;;;;;;;5055047;28;20220;-54
2023/11/07 11:35:21;;;;;;;4.90;1.60;;;;;;;;;;5043914;28;20528;-59
2023/11/07 11:38:23;;;;;;;2.37;1.53;;;;;;;;;;5060309;28;20188;-55
2023/11/07 11:40:57;;;;;;;1.60;1.47;;;;;;;;;;5057575;28;20195;-55
2023/11/07 11:43:27;;;;;;;2.33;1.50;;;;;;;;;;5055738;28;20188;-55
2023/11/07 11:46:00;;;;;;;2.97;1.73;;;;;;;;;;5059020;28;20486;-55
2023/11/07 11:48:55;;;;;;;1.97;1.53;;;;;;;;;;5041211;28;20224;-56
2023/11/07 11:51:31;;;;;;;2.80;1.83;;;;;;;;;;5035362;28;20617;-54
2023/11/07 11:53:57;;;;;;;2.70;1.40;;;;;;;;;;5061006;28;20698;-55
2023/11/07 11:56:24;;;;;;;4.80;1.93;;;;;;;;;;5064645;28;20191;-55
2023/11/07 11:59:02;;;;;;;4.93;2.10;;;;;;;;;;5046178;28;20342;-55
2023/11/07 12:01:32;;;;;;;3.10;1.40;;;;;;;;;;5054828;28;20181;-55
2023/11/07 12:03:59;;;;;;;2.43;1.53;;;;;;;;;;5056926;28;20280;-55
2023/11/07 12:06:26;;;;;;;2.97;1.50;;;;;;;;;;5052874;28;20200;-55
2023/11/07 12:08:52;;;;;;;5.87;1.70;;;;;;;;;;5059233;28;20241;-55
2023/11/07 12:11:19;;;;;;;1.47;1.37;;;;;;;;;;5064396;28;20196;-55
2023/11/07 12:13:47;;;;;;;3.10;2.17;;;;;;;;;;5061024;28;20204;-54
2023/11/07 12:16:18;;;;;;;2.07;1.57;;;;;;;;;;5063690;28;20180;-57
2023/11/07 12:18:46;;;;;;;1.80;1.63;;;;;;;;;;5062542;28;20550;-57
2023/11/07 12:21:25;;;;;;;3.43;1.70;;;;;;;;;;5055545;28;20184;-56
2023/11/07 12:23:57;;;;;;;2.10;1.23;;;;;;;;;;5056788;28;20238;-57
2023/11/07 12:26:38;;;;;;;12.27;2.90;;;;;;;;;;5063366;28;20184;-57
2023/11/07 12:29:06;;;;;;;4.67;1.63;;;;;;;;;;5053308;28;20230;-56
2023/11/07 12:31:36;;;;;;;6.80;1.60;;;;;;;;;;5055057;28;20464;-56
2023/11/07 12:34:03;;;;;;;2.83;1.37;;;;;;;;;;5055860;28;20208;-57
2023/11/07 12:36:29;;;;;;;2.13;1.30;;;;;;;;;;5043820;28;20274;-56
2023/11/07 12:38:56;;;;;;;3.77;1.60;;;;;;;;;;5061622;28;20517;-56
2023/11/07 12:41:22;;;;;;;3.17;2.07;;;;;;;;;;5052119;28;20216;-56
2023/11/07 12:43:49;;;;;;;2.20;1.40;;;;;;;;;;5058126;28;20191;-56
2023/11/07 12:46:18;;;;;;;3.47;1.60;;;;;;;;;;5052564;28;20176;-57
2023/11/07 12:48:45;;;;;;;3.90;1.50;;;;;;;;;;5049798;28;20181;-57
2023/11/07 12:51:11;;;;;;;4.50;1.70;;;;;;;;;;5061781;28;20184;-57
2023/11/07 12:53:51;;;;;;;1.67;1.37;;;;;;;;;;5058180;28;20273;-57
2023/11/07 12:56:18;;;;;;;3.77;1.87;;;;;;;;;;5057456;28;20184;-57
2023/11/07 12:58:48;;;;;;;3.00;1.83;;;;;;;;;;5053478;28;20670;-57
2023/11/07 13:01:15;;;;;;;3.07;1.90;;;;;;;;;;5057754;28;20181;-56
2023/11/07 13:03:42;;;;;;;2.10;1.90;;;;;;;;;;5055944;28;20739;-57
2023/11/07 13:06:13;;;;;;;1.67;1.50;;;;;;;;;;5063960;28;20218;-57
2023/11/07 13:08:47;;;;;;;2.13;1.77;;;;;;;;;;5061801;28;20245;-57
2023/11/07 13:11:17;;;;;;;2.33;1.60;;;;;;;;;;5063030;28;20243;-56
2023/11/07 13:13:44;;;;;;;4.90;1.60;;;;;;;;;;5047229;28;20673;-57
2023/11/07 13:16:11;;;;;;;1.90;1.57;;;;;;;;;;5068689;28;20643;-57
2023/11/07 13:18:37;;;;;;;5.33;2.03;;;;;;;;;;5058037;28;20593;-57
2023/11/07 13:21:11;;;;;;;1.97;1.53;;;;;;;;;;5064424;28;20678;-57
2023/11/07 13:23:38;;;;;;;2.03;1.43;;;;;;;;;;5055921;28;20194;-57
2023/11/07 13:26:08;;;;;;;6.63;1.73;;;;;;;;;;5058849;28;20201;-58
2023/11/07 13:28:36;;;;;;;2.43;1.87;;;;;;;;;;5063372;28;20208;-57
2023/11/07 13:31:03;;;;;;;2.37;1.50;;;;;;;;;;5057821;28;20695;-57
2023/11/07 13:33:33;;;;;;;2.07;1.50;;;;;;;;;;5062221;28;20258;-57
2023/11/07 13:36:00;;;;;;;2.33;1.90;;;;;;;;;;5062193;28;20170;-57
2023/11/07 13:38:26;;;;;;;5.30;1.60;;;;;;;;;;5059648;28;20184;-57
2023/11/07 13:40:53;;;;;;;3.53;1.60;;;;;;;;;;5053702;28;20192;-59
2023/11/07 13:43:20;;;;;;;2.50;2.00;;;;;;;;;;5045433;28;20176;-57
2023/11/07 13:45:46;;;;;;;2.90;1.60;;;;;;;;;;5061276;28;20188;-58
2023/11/07 13:48:12;;;;;;;1.73;1.33;;;;;;;;;;5063263;28;20180;-57
2023/11/07 13:50:39;;;;;;;3.40;1.70;;;;;;;;;;5041807;28;20283;-57
2023/11/07 13:53:05;;;;;;;4.07;1.50;;;;;;;;;;5061255;28;20295;-57
2023/11/07 13:55:32;;;;;;;3.17;1.43;;;;;;;;;;5058630;28;21553;-57
2023/11/07 13:57:59;;;;;;;3.23;1.70;;;;;;;;;;5064235;28;20358;-57
2023/11/07 14:00:27;;;;;;;1.60;1.47;;;;;;;;;;5067370;28;20271;-57
2023/11/07 14:02:54;;;;;;;4.27;1.50;;;;;;;;;;5064950;28;20588;-57
2023/11/07 14:05:21;;;;;;;5.43;1.60;;;;;;;;;;5063573;28;20185;-57
2023/11/07 14:07:50;;;;;;;2.50;1.60;;;;;;;;;;5064710;28;20189;-57
2023/11/07 14:10:18;;;;;;;3.37;1.73;;;;;;;;;;5059053;28;20203;-57
2023/11/07 14:12:45;;;;;;;1.63;1.30;;;;;;;;;;5047617;28;20205;-57
2023/11/07 14:15:12;;;;;;;2.90;1.97;;;;;;;;;;5047193;28;20180;-57
2023/11/07 14:17:39;;;;;;;5.57;1.60;;;;;;;;;;5049294;28;20244;-58
2023/11/07 14:20:19;;;;;;;2.90;1.77;;;;;;;;;;5061386;28;20176;-57
2023/11/07 14:22:45;;;;;;;3.73;1.57;;;;;;;;;;5062168;28;20321;-57
2023/11/07 14:25:13;;;;;;;3.50;1.70;;;;;;;;;;5061211;28;20748;-57
2023/11/07 14:27:41;;;;;;;5.10;1.90;;;;;;;;;;5058333;28;20192;-57
2023/11/07 14:30:14;;;;;;;4.63;1.80;;;;;;;;;;5059511;28;20189;-57
2023/11/07 14:32:41;;;;;;;1.63;1.50;;;;;;;;;;5061674;28;20568;-57
2023/11/07 14:35:09;;;;;;;2.97;1.53;;;;;;;;;;5059490;28;20640;-57
2023/11/07 14:37:36;;;;;;;2.97;1.70;;;;;;;;;;5060458;28;20255;-57
2023/11/07 14:40:10;;;;;;;4.23;1.53;;;;;;;;;;5056692;28;20177;-58
2023/11/07 14:42:37;;;;;;;1.50;1.40;;;;;;;;;;5044876;28;20305;-57
2023/11/07 14:45:09;;;;;;;1.50;1.40;;;;;;;;;;5061275;28;20256;-57
2023/11/07 14:47:42;;;;;;;1.83;1.63;;;;;;;;;;5063269;28;20255;-58